Startpagina
METAR-TAF:

METAR-TAF

Vliegvelden :

Geilenkirchen, Duitsland

breedte: 50-57-39N, lengte: 006-2-33E, hoogte: 90 m

Actueel weer

Dit bericht is 48 minuten geleden gemaakt, om 15:50 UTC
Wind 10 kt uit het westzuidwesten
Temperatuur 17°C
Vochtigheid 52%
Druk 1030 hPa
Zicht 10 km of meer
geen wolken onder 1500 m en geen cumulonimbus

METAR: ETNG 061550Z 25010KT CAVOK 17/07 Q1030 NOSIG

Tijdstip: 18:38 (16:38 UTC)

Verwachting

Dit bericht is 2 uur en het 38 minuten geleden gemaakt, om 14:00 UTC
Verwachting geldig van 06 om 15 UTC tot 07 om 06 UTC
Wind 10 kt uit het westzuidwesten
Zicht 10 km of meer
geen wolken onder 1500 m en geen cumulonimbus
Wijzigt naar
van 06 om 16 UTC tot 06 om 18 UTC
Wind 3 kt uit het zuiden

TAF: ETNG 061400Z 0615/0706 24010KT CAVOK BECMG 0616/0618 18003KT

Waarnemingen en weersverwachtingen van meer dan 4000 vliegvelden (METAR en TAF).

De beschikbare stations zijn de gele en rode punten op de kaart.

Ga met uw muis naar het station om de naam te zien.

Klik dan om waarnemingen en weersverwachtingen te zien.

kaart wijzigen: klik op de groene knoppen met een zwart kruis om in te zoomen, op de groene knop met een streepje om uit te zoomen of op de groene pijlen voor aangrenzende kaarten.


METAR-TAF: